首页
METAR-TAF:

METAR-TAF

机场 :

Daniel Field Airport

奥古斯塔, 喬治亞, 美国

纬度: 33-28-01N, 经度: 082-02-19W, 海拔: 128米

当前天气观测

该预报发布于42分钟前的09:04 UTC
风速7节,风向
温度 7°C
湿度 87%
气压 1021 hPa
能見度: 6.4公里
散云层高于300英尺
多云层高于3100英尺
阴天层高于7500英尺
小雨, 轻雾

METAR: KDNL 150904Z AUTO 01007KT 4SM -RA BR SCT003 BKN031 OVC075 07/05 A3014 RMK AO2 P0001 T00670050

时间: 04:46 (09:46 UTC)

预报

该预报发布于1小时和26分钟前的08:20 UTC
预报有效从15日的 08点(UTC)到 16日的 06点(UTC)
风速8节,风向北转东北
能見度: 8.0公里
阴天层高于700英尺
小雨, 轻雾
短暂存在
从 15日的 09点(UTC)到 15日的 13点(UTC)
能見度: 4.8公里
阴天层高于300英尺
雨, 轻雾
从 15日的 2000点(UTC)
风速10节,风向
能見度: 8.0公里
散云层高于700英尺
阴天层高于1200英尺
小雨, 轻雾

TAF: KDNL 150820Z 1508/1606 02008KT 5SM -RA BR OVC007 TEMPO 1509/1513 3SM RA BR OVC003 FM152000 01010KT 5SM -RA BR SCT007 OVC012

超过4000个机场的气象观测和天气预报(METAR&TAF报告)。

可查询的气象台以黄色和红色小点在地图上表示。

将鼠标移到小点上方,可查看气象台名称。

然后点击查看天气观测和预报。

如需切换地图:点击带黑十字的绿色按钮放大地图;点击带横线的绿色按钮缩小地图;或者点击绿色箭头查看邻近地区的地图。


METAR-TAF: